Time;durP1;ratioP1;P1;durP2;ratioP2;P2;SDS_P1;SDS_P2;PMS_P1;PMS_P2;Temp;Humidity;BMP_temperature;BMP_pressure;BME280_temperature;BME280_humidity;BME280_pressure;Samples;Min_cycle;Max_cycle;Signal;HPM_P1;HPM_P2
2022/09/11 00:00:01;;;;;;;1999.90;999.90;;;16.70;99.90;;;;;;5267680;28;20031;-75
2022/09/11 00:02:32;;;;;;;1999.90;999.90;;;16.70;99.90;;;;;;5267831;28;20020;-75
2022/09/11 00:05:03;;;;;;;1999.90;999.90;;;16.50;99.90;;;;;;5267997;28;20633;-75
2022/09/11 00:07:34;;;;;;;1999.90;999.90;;;16.40;99.90;;;;;;5267760;28;20028;-75
2022/09/11 00:10:05;;;;;;;1999.90;999.90;;;16.60;99.90;;;;;;5267421;28;20483;-74
2022/09/11 00:12:36;;;;;;;1999.90;999.90;;;16.50;99.90;;;;;;5249261;28;20384;-74
2022/09/11 00:15:07;;;;;;;1999.90;999.90;;;16.20;99.90;;;;;;5249257;28;20085;-74
2022/09/11 00:17:38;;;;;;;1999.90;999.90;;;16.10;99.90;;;;;;5266902;28;20028;-74
2022/09/11 00:20:09;;;;;;;1999.90;999.90;;;16.40;99.90;;;;;;5266919;28;20020;-75
2022/09/11 00:22:40;;;;;;;1999.90;999.90;;;16.40;99.90;;;;;;5267124;28;20115;-74
2022/09/11 00:25:11;;;;;;;1999.90;999.90;;;16.50;99.90;;;;;;5248954;28;20463;-75
2022/09/11 00:27:42;;;;;;;1999.90;999.90;;;16.30;99.90;;;;;;5267299;28;20071;-74
2022/09/11 00:30:13;;;;;;;1999.90;999.90;;;16.40;99.90;;;;;;5267320;28;20062;-75
2022/09/11 00:32:43;;;;;;;1999.90;999.90;;;16.50;99.90;;;;;;5267150;28;20031;-74
2022/09/11 00:35:14;;;;;;;1999.90;999.90;;;16.50;99.90;;;;;;5267130;28;20028;-73
2022/09/11 00:37:47;;;;;;;1999.90;999.90;;;16.00;99.90;;;;;;5267050;28;20051;-73
2022/09/11 00:40:18;;;;;;;1999.90;999.90;;;16.10;99.90;;;;;;5249115;28;20037;-74
2022/09/11 00:42:53;;;;;;;1999.90;999.90;;;16.00;99.90;;;;;;5267137;28;20024;-74
2022/09/11 00:45:26;;;;;;;1999.90;999.90;;;16.30;99.90;;;;;;5267157;28;20074;-73
2022/09/11 00:47:59;;;;;;;1999.90;999.90;;;16.40;99.90;;;;;;5267169;28;20012;-75
2022/09/11 00:50:31;;;;;;;1999.90;999.90;;;16.20;99.90;;;;;;5271495;28;20051;-75
2022/09/11 00:53:07;;;;;;;1999.90;999.90;;;15.90;99.90;;;;;;5271315;28;20016;-74
2022/09/11 00:55:41;;;;;;;1999.90;999.90;;;16.00;99.90;;;;;;5269942;28;20662;-74
2022/09/11 00:58:17;;;;;;;1999.90;999.90;;;16.00;99.90;;;;;;5271012;28;20500;-74
2022/09/11 01:00:48;;;;;;;1999.90;999.90;;;16.20;99.90;;;;;;5271649;28;20070;-74
2022/09/11 01:03:19;;;;;;;1999.90;999.90;;;16.20;99.90;;;;;;5271707;28;20031;-74
2022/09/11 01:05:51;;;;;;;1999.90;999.90;;;16.20;99.90;;;;;;5271298;28;20081;-75
2022/09/11 01:08:22;;;;;;;1999.90;999.90;;;16.00;99.90;;;;;;5271088;28;20099;-75
2022/09/11 01:11:16;;;;;;;1999.90;999.90;;;16.10;99.90;;;;;;5271076;28;20095;-74
2022/09/11 01:13:56;;;;;;;1999.90;999.90;;;16.00;99.90;;;;;;5271120;28;20020;-75
2022/09/11 01:16:55;;;;;;;1999.90;999.90;;;16.00;99.90;;;;;;5271120;28;20080;-75
2022/09/11 01:19:53;;;;;;;1999.90;999.90;;;16.00;99.90;;;;;;5252841;28;20032;-75
2022/09/11 01:22:58;;;;;;;1999.90;999.90;;;16.20;99.90;;;;;;5270949;28;20131;-73
2022/09/11 01:25:35;;;;;;;1999.90;999.90;;;15.80;99.90;;;;;;5270727;28;20375;-75
2022/09/11 01:28:34;;;;;;;1999.90;999.90;;;15.60;99.90;;;;;;5271251;28;20043;-74
2022/09/11 01:31:11;;;;;;;1999.90;999.90;;;15.90;99.90;;;;;;5243268;28;20039;-74
2022/09/11 01:33:46;;;;;;;1999.90;999.90;;;15.70;99.90;;;;;;5252438;28;20023;-73
2022/09/11 01:36:34;;;;;;;1999.90;999.90;;;15.80;99.90;;;;;;5270711;28;20024;-74
2022/09/11 01:39:05;;;;;;;1999.90;999.90;;;16.00;99.90;;;;;;5270400;28;20065;-74
2022/09/11 01:41:49;;;;;;;1999.90;999.90;;;15.40;99.90;;;;;;5270351;28;20592;-73
2022/09/11 01:44:28;;;;;;;1999.90;999.90;;;15.60;99.90;;;;;;5270380;28;20035;-75
2022/09/11 01:47:02;;;;;;;1999.90;999.90;;;15.40;99.90;;;;;;5270469;28;20016;-74
2022/09/11 01:49:54;;;;;;;1999.90;999.90;;;15.40;99.90;;;;;;5269909;28;20427;-74
2022/09/11 01:52:32;;;;;;;1999.90;999.90;;;15.10;99.90;;;;;;5270117;28;20027;-74
2022/09/11 01:55:31;;;;;;;1999.90;999.90;;;15.30;99.90;;;;;;5251750;28;20036;-74
2022/09/11 01:58:12;;;;;;;1999.90;999.90;;;15.50;99.90;;;;;;5256336;28;20079;-73
2022/09/11 02:00:48;;;;;;;1999.90;999.90;;;15.50;99.90;;;;;;5269203;28;20587;-73
2022/09/11 02:03:24;;;;;;;1999.90;999.90;;;15.40;99.90;;;;;;5251770;28;20073;-74
2022/09/11 02:06:00;;;;;;;1999.90;999.90;;;15.50;99.90;;;;;;5269979;28;20034;-74
2022/09/11 02:08:59;;;;;;;1999.90;999.90;;;15.70;99.90;;;;;;5251632;28;20068;-75
2022/09/11 02:11:37;;;;;;;1999.90;999.90;;;15.50;99.90;;;;;;5259915;28;20040;-74
2022/09/11 02:14:28;;;;;;;1999.90;999.90;;;15.30;99.90;;;;;;5269666;28;20023;-75
2022/09/11 02:17:23;;;;;;;1999.90;999.90;;;15.10;99.90;;;;;;5269646;28;20028;-73
2022/09/11 02:19:56;;;;;;;1999.90;999.90;;;15.50;99.90;;;;;;5270070;28;20016;-74
2022/09/11 02:22:28;;;;;;;1999.90;999.90;;;15.70;99.90;;;;;;5269698;28;20028;-75
2022/09/11 02:25:00;;;;;;;1999.90;999.90;;;15.70;99.90;;;;;;5269156;28;20039;-75
2022/09/11 02:27:31;;;;;;;1999.90;999.90;;;15.40;99.90;;;;;;5269617;28;20032;-75
2022/09/11 02:30:01;;;;;;;1999.90;999.90;;;15.50;99.90;;;;;;5269384;28;20023;-74
2022/09/11 02:32:35;;;;;;;1999.90;999.90;;;15.50;99.90;;;;;;5269398;28;20039;-73
2022/09/11 02:35:07;;;;;;;1999.90;999.90;;;15.20;99.90;;;;;;5269585;28;20023;-75
2022/09/11 02:37:56;;;;;;;1999.90;999.90;;;15.10;99.90;;;;;;5269367;28;20032;-75
2022/09/11 02:40:45;;;;;;;1999.90;999.90;;;15.20;99.90;;;;;;5269279;28;20031;-75
2022/09/11 02:43:32;;;;;;;1999.90;999.90;;;15.30;99.90;;;;;;5269208;28;20036;-73
2022/09/11 02:46:28;;;;;;;1999.90;999.90;;;15.30;99.90;;;;;;5269294;28;20380;-75
2022/09/11 02:49:02;;;;;;;1999.90;999.90;;;15.50;99.90;;;;;;5269262;28;20468;-75
2022/09/11 02:51:33;;;;;;;1999.90;999.90;;;15.40;99.90;;;;;;5269218;28;20032;-75
2022/09/11 02:54:23;;;;;;;1999.90;999.90;;;15.30;99.90;;;;;;5268798;28;20047;-75
2022/09/11 02:57:18;;;;;;;;;;;15.00;99.90;;;;;;5269305;28;20039;-75
2022/09/11 03:00:00;;;;;;;1999.90;999.90;;;15.20;99.90;;;;;;5269179;28;20012;-72
2022/09/11 03:02:35;;;;;;;1999.90;999.90;;;15.30;99.90;;;;;;5269250;28;20472;-75
2022/09/11 03:05:07;;;;;;;1999.90;999.90;;;15.30;99.90;;;;;;5250616;28;20028;-75
2022/09/11 03:10:19;;;;;;;1999.90;999.90;;;15.20;99.90;;;;;;5459498;22;20057;-75
2022/09/11 03:12:50;;;;;;;1999.90;999.90;;;15.10;99.90;;;;;;5249269;28;20103;-75
2022/09/11 03:15:22;;;;;;;1999.90;999.90;;;15.10;99.90;;;;;;5247990;28;20119;-76
2022/09/11 03:17:53;;;;;;;1999.90;999.90;;;15.30;99.90;;;;;;5247480;28;20036;-76
2022/09/11 03:20:24;;;;;;;1999.90;999.90;;;15.10;99.90;;;;;;5247642;28;20074;-75
2022/09/11 03:22:54;;;;;;;1999.90;999.90;;;15.10;99.90;;;;;;5247426;28;20028;-76
2022/09/11 03:25:27;;;;;;;1999.90;999.90;;;15.30;99.90;;;;;;5247294;28;20043;-76
2022/09/11 03:27:57;;;;;;;1999.90;999.90;;;15.20;99.90;;;;;;5246055;28;20432;-75
2022/09/11 03:30:28;;;;;;;1999.90;999.90;;;15.20;99.90;;;;;;5247230;28;20108;-76
2022/09/11 03:33:02;;;;;;;1999.90;999.90;;;15.40;99.90;;;;;;5247154;28;20105;-75
2022/09/11 03:35:33;;;;;;;1999.90;999.90;;;15.30;99.90;;;;;;5247153;28;20028;-74
2022/09/11 03:38:04;;;;;;;1999.90;999.90;;;15.20;99.90;;;;;;5246696;28;20043;-76
2022/09/11 03:40:34;;;;;;;1999.90;999.90;;;15.20;99.90;;;;;;5247080;28;20037;-75
2022/09/11 03:43:05;;;;;;;1999.90;999.90;;;15.00;99.90;;;;;;5247064;28;20060;-75
2022/09/11 03:45:36;;;;;;;1999.90;999.90;;;15.30;99.90;;;;;;5247141;28;20035;-76
2022/09/11 03:48:07;;;;;;;1999.90;999.90;;;15.30;99.90;;;;;;5247238;28;20066;-75
2022/09/11 03:50:38;;;;;;;1999.90;999.90;;;15.40;99.90;;;;;;5246716;28;20036;-75
2022/09/11 03:53:09;;;;;;;1999.90;999.90;;;15.50;99.90;;;;;;5246543;28;20028;-74
2022/09/11 03:55:40;;;;;;;1999.90;999.90;;;15.10;99.90;;;;;;5246901;28;20070;-76
2022/09/11 03:58:12;;;;;;;1999.90;999.90;;;15.20;99.90;;;;;;5246820;28;20032;-74
2022/09/11 04:00:44;;;;;;;1999.90;999.90;;;15.40;99.90;;;;;;5246936;28;20020;-75
2022/09/11 04:03:16;;;;;;;1999.90;999.90;;;15.40;99.90;;;;;;5245115;28;20025;-74
2022/09/11 04:05:59;;;;;;;1999.90;999.90;;;15.40;99.90;;;;;;5246778;28;20024;-76
2022/09/11 04:08:32;;;;;;;1999.90;999.90;;;15.30;99.90;;;;;;5246692;28;20040;-74
2022/09/11 04:11:05;;;;;;;1999.90;999.90;;;15.50;99.90;;;;;;5247074;28;20040;-76
2022/09/11 04:13:38;;;;;;;1999.90;999.90;;;15.40;99.90;;;;;;5246607;28;20021;-74
2022/09/11 04:16:14;;;;;;;1999.90;999.90;;;15.50;99.90;;;;;;5246541;28;20028;-75
2022/09/11 04:18:46;;;;;;;1999.90;999.90;;;15.30;99.90;;;;;;5246642;28;20111;-75
2022/09/11 04:21:17;;;;;;;1999.90;999.90;;;15.50;99.90;;;;;;5245268;28;20468;-76
2022/09/11 04:23:54;;;;;;;1999.90;999.90;;;15.30;99.90;;;;;;5246113;28;20048;-76
2022/09/11 04:26:28;;;;;;;1999.90;999.90;;;15.40;99.90;;;;;;5246399;28;20469;-76
2022/09/11 04:29:00;;;;;;;1999.90;999.90;;;15.30;99.90;;;;;;5246607;28;20021;-76
2022/09/11 04:31:30;;;;;;;1999.90;999.90;;;15.40;99.90;;;;;;5246345;28;20020;-75
2022/09/11 04:34:01;;;;;;;1999.90;999.90;;;15.20;99.90;;;;;;5246378;28;20021;-74
2022/09/11 04:36:32;;;;;;;1999.90;999.90;;;15.50;99.90;;;;;;5246182;28;20025;-76
2022/09/11 04:39:03;;;;;;;1999.90;999.90;;;15.60;99.90;;;;;;5246100;28;20407;-74
2022/09/11 04:41:34;;;;;;;1999.90;999.90;;;15.50;99.90;;;;;;5246335;28;20052;-75
2022/09/11 04:44:04;;;;;;;1999.90;999.90;;;15.70;99.90;;;;;;5246209;28;20484;-75
2022/09/11 04:46:35;;;;;;;1999.90;999.90;;;15.80;99.90;;;;;;5246274;28;20377;-75
2022/09/11 04:49:08;;;;;;;1999.90;999.90;;;16.20;99.90;;;;;;5246418;28;20025;-76
2022/09/11 04:51:39;;;;;;;1999.90;999.90;;;16.30;99.90;;;;;;5246222;28;20024;-75
2022/09/11 04:54:16;;;;;;;1999.90;999.90;;;16.30;99.90;;;;;;5246177;28;20438;-76
2022/09/11 04:56:47;;;;;;;1999.90;999.90;;;16.50;99.90;;;;;;5246046;28;20067;-75
2022/09/11 04:59:21;;;;;;;1999.90;999.90;;;16.50;99.90;;;;;;5245102;28;20029;-76
2022/09/11 05:01:53;;;;;;;1999.90;999.90;;;16.60;99.90;;;;;;5246461;28;20039;-76
2022/09/11 05:04:24;;;;;;;1999.90;999.90;;;16.60;99.90;;;;;;5246419;28;20028;-75
2022/09/11 05:06:54;;;;;;;1999.90;999.90;;;16.80;99.90;;;;;;5245071;28;20032;-76
2022/09/11 05:09:26;;;;;;;1999.90;999.90;;;17.00;99.90;;;;;;5245804;28;20036;-75
2022/09/11 05:11:57;;;;;;;1999.90;999.90;;;17.20;99.90;;;;;;5246140;28;20036;-76
2022/09/11 05:14:29;;;;;;;1999.90;999.90;;;17.50;99.90;;;;;;5245725;28;20468;-76
2022/09/11 05:17:00;;;;;;;1999.90;999.90;;;17.70;99.90;;;;;;5246208;28;20048;-76
2022/09/11 05:19:31;;;;;;;1999.90;999.90;;;18.00;99.90;;;;;;5244947;28;20017;-75
2022/09/11 05:22:03;;;;;;;1999.90;999.90;;;18.10;99.90;;;;;;5245938;28;20494;-76
2022/09/11 05:24:34;;;;;;;1999.90;999.90;;;18.40;99.90;;;;;;5245930;28;20025;-76
2022/09/11 05:27:05;;;;;;;1999.90;999.90;;;18.60;99.90;;;;;;5246150;28;20159;-76
2022/09/11 05:29:37;;;;;;;1999.90;999.90;;;18.80;99.90;;;;;;5246026;28;20032;-75
2022/09/11 05:32:08;;;;;;;1999.90;999.90;;;19.20;99.90;;;;;;5244590;28;20472;-76
2022/09/11 05:34:39;;;;;;;1999.90;999.90;;;19.40;99.90;;;;;;5245812;28;20057;-76
2022/09/11 05:37:10;;;;;;;1999.90;999.90;;;19.60;99.90;;;;;;5249059;28;20127;-76
2022/09/11 05:39:41;;;;;;;1999.90;999.90;;;20.00;99.90;;;;;;5249268;28;20116;-75
2022/09/11 05:42:12;;;;;;;1999.90;999.90;;;20.30;99.90;;;;;;5249467;28;20039;-76
2022/09/11 05:44:43;;;;;;;1999.90;999.90;;;20.40;99.90;;;;;;5248080;28;20492;-76
2022/09/11 05:47:13;;;;;;;1999.90;999.90;;;20.50;99.90;;;;;;5249398;28;20029;-76
2022/09/11 05:49:44;;;;;;;1999.90;999.90;;;20.80;99.90;;;;;;5249311;28;20021;-76
2022/09/11 05:52:15;;;;;;;1999.90;999.90;;;21.10;99.90;;;;;;5249211;28;20077;-76
2022/09/11 05:54:46;;;;;;;1999.90;999.90;;;21.40;99.90;;;;;;5247998;28;20574;-76
2022/09/11 05:57:18;;;;;;;1999.90;999.90;;;21.80;99.90;;;;;;5249115;28;20032;-75
2022/09/11 05:59:49;;;;;;;1999.90;999.90;;;22.00;99.90;;;;;;5249320;28;20090;-76
2022/09/11 06:02:20;;;;;;;1999.90;999.90;;;22.60;99.90;;;;;;5249006;28;20508;-76
2022/09/11 06:04:51;;;;;;;1999.90;999.90;;;23.00;99.90;;;;;;5249046;28;20021;-76
2022/09/11 06:07:21;;;;;;;1999.90;999.90;;;23.30;99.90;;;;;;5249011;28;20027;-75
2022/09/11 06:09:52;;;;;;;1999.90;999.90;;;23.50;99.90;;;;;;5248558;28;20447;-76
2022/09/11 06:12:24;;;;;;;1999.90;999.90;;;23.50;99.90;;;;;;5249020;28;20062;-76
2022/09/11 06:14:55;;;;;;;1999.90;999.90;;;23.40;99.90;;;;;;5248117;28;20421;-76
2022/09/11 06:17:27;;;;;;;1999.90;999.90;;;23.40;99.90;;;;;;5248837;28;20063;-76
2022/09/11 06:19:58;;;;;;;1999.90;999.90;;;23.50;99.90;;;;;;5248939;28;20036;-76
2022/09/11 06:22:32;;;;;;;1999.90;999.90;;;23.40;99.90;;;;;;5248905;28;20065;-76
2022/09/11 06:25:04;;;;;;;1999.90;999.90;;;23.50;99.90;;;;;;5248093;28;20025;-75
2022/09/11 06:27:34;;;;;;;1999.90;999.90;;;23.50;99.90;;;;;;5247680;28;20477;-75
2022/09/11 06:30:06;;;;;;;1999.90;999.90;;;23.70;99.90;;;;;;5248826;28;20069;-76
2022/09/11 06:32:36;;;;;;;1999.90;999.90;;;23.80;99.90;;;;;;5248638;28;20024;-76
2022/09/11 06:35:08;;;;;;;1999.90;999.90;;;24.30;99.90;;;;;;5248471;28;20020;-76
2022/09/11 06:37:38;;;;;;;1999.90;999.90;;;24.90;99.90;;;;;;5248356;28;20111;-74
2022/09/11 06:40:12;;;;;;;1999.90;999.90;;;24.80;99.90;;;;;;5246995;28;20182;-76
2022/09/11 06:42:42;;;;;;;1999.90;999.90;;;24.70;99.90;;;;;;5248377;28;20035;-76
2022/09/11 06:45:13;;;;;;;1999.90;999.90;;;24.20;99.90;;;;;;5246881;28;20024;-76
2022/09/11 06:47:45;;;;;;;1999.90;999.90;;;24.60;99.90;;;;;;5248012;28;20459;-75
2022/09/11 06:50:16;;;;;;;1999.90;999.90;;;24.40;99.90;;;;;;5248152;28;20020;-76
2022/09/11 06:52:46;;;;;;;1999.90;999.90;;;24.30;99.90;;;;;;5248084;28;20032;-75
2022/09/11 06:55:17;;;;;;;1999.90;999.90;;;24.30;99.90;;;;;;5248061;28;20029;-76
2022/09/11 06:57:48;;;;;;;1999.90;999.90;;;24.30;99.90;;;;;;5246200;28;20124;-75
2022/09/11 07:00:19;;;;;;;1999.90;999.90;;;24.40;99.90;;;;;;5247900;28;20025;-76
2022/09/11 07:02:54;;;;;;;1999.90;999.90;;;24.40;99.90;;;;;;5247991;28;20032;-73
2022/09/11 07:05:24;;;;;;;1999.90;999.90;;;24.50;99.90;;;;;;5248686;28;20079;-75
2022/09/11 07:07:55;;;;;;;1999.90;999.90;;;24.50;99.90;;;;;;5248793;28;20439;-75
2022/09/11 07:10:27;;;;;;;1999.90;999.90;;;24.30;99.90;;;;;;5247669;28;20207;-76
2022/09/11 07:12:57;;;;;;;1999.90;999.90;;;24.30;99.90;;;;;;5248878;28;20051;-76
2022/09/11 07:15:30;;;;;;;1999.90;999.90;;;24.20;99.90;;;;;;5248596;28;20484;-75
2022/09/11 07:18:02;;;;;;;1999.90;999.90;;;24.20;99.90;;;;;;5249016;28;20047;-76
2022/09/11 07:20:33;;;;;;;1999.90;999.90;;;24.30;99.90;;;;;;5246931;28;20494;-76
2022/09/11 07:23:04;;;;;;;1999.90;999.90;;;24.30;99.90;;;;;;5246980;28;20032;-76
2022/09/11 07:25:37;;;;;;;1999.90;999.90;;;24.40;99.90;;;;;;5248307;28;20078;-75
2022/09/11 07:28:11;;;;;;;1999.90;999.90;;;24.50;99.90;;;;;;5249021;28;20027;-75
2022/09/11 07:30:41;;;;;;;1999.90;999.90;;;24.40;99.90;;;;;;5247860;28;20024;-75
2022/09/11 07:33:12;;;;;;;1999.90;999.90;;;24.50;99.90;;;;;;5247908;28;20021;-75
2022/09/11 07:35:43;;;;;;;1999.90;999.90;;;24.50;99.90;;;;;;5247362;28;20628;-75
2022/09/11 07:38:14;;;;;;;1999.90;999.90;;;24.60;99.90;;;;;;5246688;28;20146;-75
2022/09/11 07:40:45;;;;;;;1999.90;999.90;;;24.60;99.90;;;;;;5242169;28;20096;-75
2022/09/11 07:43:16;;;;;;;1999.90;999.90;;;24.60;99.90;;;;;;5226823;28;20032;-75
2022/09/11 07:45:49;;;;;;;1999.90;999.90;;;24.70;99.90;;;;;;5228261;28;20346;-75
2022/09/11 07:48:20;;;;;;;1999.90;999.90;;;25.00;99.90;;;;;;5228347;28;20516;-75
2022/09/11 07:50:56;;;;;;;1999.90;999.90;;;25.10;99.90;;;;;;5226488;28;20167;-75
2022/09/11 07:53:33;;;;;;;1999.90;999.90;;;24.90;99.90;;;;;;5227535;28;20021;-75
2022/09/11 07:56:09;;;;;;;1999.90;999.90;;;25.10;99.90;;;;;;5227691;28;20487;-76
2022/09/11 07:58:42;;;;;;;1999.90;999.90;;;25.20;99.90;;;;;;5225647;28;20032;-76
2022/09/11 08:01:15;;;;;;;1999.90;999.90;;;25.20;99.90;;;;;;5227209;28;20013;-76
2022/09/11 08:03:48;;;;;;;1999.90;999.90;;;25.50;99.90;;;;;;5225717;28;20059;-77
2022/09/11 08:06:22;;;;;;;1999.90;999.90;;;25.90;99.90;;;;;;5227233;28;20354;-76
2022/09/11 08:08:57;;;;;;;1999.90;999.90;;;26.10;99.90;;;;;;5226706;28;20443;-76
2022/09/11 08:11:30;;;;;;;1999.90;999.90;;;25.90;99.90;;;;;;5226841;28;20389;-76
2022/09/11 08:14:01;;;;;;;1999.90;999.90;;;26.20;99.90;;;;;;5245578;28;20024;-77
2022/09/11 08:16:34;;;;;;;1999.90;999.90;;;26.40;99.90;;;;;;5246520;28;20081;-76
2022/09/11 08:19:07;;;;;;;1999.90;999.90;;;26.60;99.90;;;;;;5246557;28;20066;-76
2022/09/11 08:21:37;;;;;;;1999.90;999.90;;;26.70;99.90;;;;;;5247148;28;20460;-76
2022/09/11 08:24:11;;;;;;;1999.90;999.90;;;26.70;99.90;;;;;;5236491;28;20070;-75
2022/09/11 08:26:43;;;;;;;1999.90;999.90;;;26.70;99.90;;;;;;5245194;28;20085;-77
2022/09/11 08:29:17;;;;;;;1999.90;999.90;;;26.90;99.90;;;;;;5245353;28;20098;-76
2022/09/11 08:31:47;;;;;;;1999.90;999.90;;;27.00;99.90;;;;;;5246737;28;20020;-77
2022/09/11 08:34:21;;;;;;;1999.90;999.90;;;26.90;99.90;;;;;;5246713;28;20062;-77
2022/09/11 08:36:51;;;;;;;1999.90;999.90;;;27.00;99.90;;;;;;5245594;28;20116;-76
2022/09/11 08:39:22;;;;;;;1999.90;999.90;;;27.00;99.90;;;;;;5246756;28;20115;-77
2022/09/11 08:42:20;;;;;;;1999.90;999.90;;;27.00;99.90;;;;;;5244135;28;20028;-76
2022/09/11 08:44:55;;;;;;;1999.90;999.90;;;27.10;99.90;;;;;;5242754;28;20036;-76
2022/09/11 08:47:30;;;;;;;1999.90;999.90;;;26.90;99.90;;;;;;5244666;28;20697;-75
2022/09/11 08:50:22;;;;;;;1999.90;999.90;;;26.90;99.90;;;;;;5234336;28;20021;-75
2022/09/11 08:52:53;;;;;;;1999.90;999.90;;;26.50;99.90;;;;;;5226164;28;20032;-75
2022/09/11 08:55:34;;;;;;;1999.90;999.90;;;26.60;99.90;;;;;;5236548;28;20020;-76
2022/09/11 08:58:13;;;;;;;1999.90;999.90;;;26.90;99.90;;;;;;5244674;28;20066;-76
2022/09/11 09:01:30;;;;;;;1999.90;999.90;;;27.30;99.90;;;;;;5246217;28;20465;-77
2022/09/11 09:04:31;;;;;;;1999.90;999.90;;;27.40;99.90;;;;;;5245188;28;20274;-76
2022/09/11 09:07:20;;;;;;;1999.90;999.90;;;27.70;99.90;;;;;;5243876;28;20111;-76
2022/09/11 09:10:28;;;;;;;1999.90;999.90;;;27.70;99.90;;;;;;5246433;28;20462;-76
2022/09/11 09:13:19;;;;;;;1999.90;999.90;;;27.80;99.90;;;;;;5250231;28;20111;-77
2022/09/11 09:16:08;;;;;;;1999.90;999.90;;;27.80;99.90;;;;;;5250967;28;20352;-76
2022/09/11 09:18:55;;;;;;;1999.90;999.90;;;28.10;99.90;;;;;;5249187;28;20093;-77
2022/09/11 09:21:34;;;;;;;1999.90;999.90;;;28.20;99.90;;;;;;5250196;28;20086;-76
2022/09/11 09:24:18;;;;;;;1999.90;999.90;;;27.90;99.90;;;;;;5248599;28;20021;-75
2022/09/11 09:26:55;;;;;;;1999.90;999.90;;;27.90;99.90;;;;;;5236297;28;21179;-76
2022/09/11 09:29:31;;;;;;;1999.90;999.90;;;28.10;99.90;;;;;;5233606;28;20032;-76
2022/09/11 09:32:19;;;;;;;1999.90;999.90;;;28.30;99.90;;;;;;5248960;28;20115;-75
2022/09/11 09:34:54;;;;;;;1999.90;999.90;;;28.80;99.90;;;;;;5237163;28;20098;-75
2022/09/11 09:37:27;;;;;;;1999.90;999.90;;;28.50;99.90;;;;;;5247223;28;20098;-76
2022/09/11 09:39:59;;;;;;;1999.90;999.90;;;28.20;99.90;;;;;;5250015;28;20020;-76
2022/09/11 09:42:46;;;;;;;1999.90;999.90;;;29.00;99.90;;;;;;5248930;28;20040;-76
2022/09/11 09:45:36;;;;;;;1999.90;999.90;;;28.70;99.90;;;;;;5249583;28;20012;-76
2022/09/11 09:48:10;;;;;;;1999.90;999.90;;;28.50;99.90;;;;;;5249001;28;20035;-76
2022/09/11 09:50:45;;;;;;;1999.90;999.90;;;28.40;99.90;;;;;;5249960;28;20024;-76
2022/09/11 09:53:19;;;;;;;1999.90;999.90;;;28.80;99.90;;;;;;5249853;28;20017;-76
2022/09/11 09:55:52;;;;;;;1999.90;999.90;;;28.80;99.90;;;;;;5248399;28;20039;-76
2022/09/11 09:58:32;;;;;;;1999.90;999.90;;;28.30;99.90;;;;;;5249533;28;20140;-76
2022/09/11 10:01:23;;;;;;;1999.90;999.90;;;28.40;99.90;;;;;;5248756;28;20524;-76
2022/09/11 10:04:12;;;;;;;1999.90;999.90;;;28.30;99.90;;;;;;5249842;28;20021;-76
2022/09/11 10:06:45;;;;;;;1999.90;999.90;;;28.50;99.90;;;;;;5250035;28;20112;-76
2022/09/11 10:09:27;;;;;;;1999.90;999.90;;;28.90;99.90;;;;;;5248240;28;20388;-75
2022/09/11 10:12:01;;;;;;;1999.90;999.90;;;29.10;99.90;;;;;;5249603;28;20056;-77
2022/09/11 10:14:49;;;;;;;1999.90;999.90;;;29.20;99.90;;;;;;5249944;28;20477;-76
2022/09/11 10:17:29;;;;;;;1999.90;999.90;;;28.90;99.90;;;;;;5249540;28;20036;-77
2022/09/11 10:20:14;;;;;;;1999.90;999.90;;;29.40;99.90;;;;;;5249938;28;20024;-76
2022/09/11 10:22:45;;;;;;;1999.90;999.90;;;29.50;99.90;;;;;;5248931;28;20021;-77
2022/09/11 10:25:19;;;;;;;1999.90;999.90;;;29.40;99.90;;;;;;5249629;28;20074;-76
2022/09/11 10:27:58;;;;;;;1999.90;999.90;;;29.10;99.90;;;;;;5249281;28;20097;-77
2022/09/11 10:30:32;;;;;;;1999.90;999.90;;;29.50;99.90;;;;;;5249690;28;20087;-77
2022/09/11 10:33:14;;;;;;;1999.90;999.90;;;29.50;99.90;;;;;;5248904;28;20070;-76
2022/09/11 10:35:53;;;;;;;1999.90;999.90;;;29.20;99.90;;;;;;5249652;28;20055;-76
2022/09/11 10:38:46;;;;;;;1999.90;999.90;;;29.40;99.90;;;;;;5249044;28;20040;-76
2022/09/11 10:41:20;;;;;;;1999.90;999.90;;;28.60;99.90;;;;;;5249274;28;20036;-75
2022/09/11 10:43:58;;;;;;;1999.90;999.90;;;29.20;99.90;;;;;;5249580;28;20056;-76
2022/09/11 10:46:33;;;;;;;1999.90;999.90;;;29.20;99.90;;;;;;5249316;28;20066;-77
2022/09/11 10:49:04;;;;;;;1999.90;999.90;;;28.80;99.90;;;;;;5249359;28;20266;-76
2022/09/11 10:51:38;;;;;;;1999.90;999.90;;;28.70;99.90;;;;;;5249642;28;20040;-76
2022/09/11 10:54:29;;;;;;;1999.90;999.90;;;28.30;99.90;;;;;;5249156;28;20024;-76
2022/09/11 10:57:26;;;;;;;1999.90;999.90;;;28.60;99.90;;;;;;5247610;28;20406;-76
2022/09/11 11:00:21;;;;;;;1999.90;999.90;;;28.90;99.90;;;;;;5248527;28;20035;-77
2022/09/11 11:03:05;;;;;;;1999.90;999.90;;;29.10;99.90;;;;;;5247736;28;20541;-76
2022/09/11 11:05:49;;;;;;;1999.90;999.90;;;29.30;99.90;;;;;;5248375;28;20029;-76
2022/09/11 11:08:27;;;;;;;1999.90;999.90;;;29.10;99.90;;;;;;5248535;28;20460;-76
2022/09/11 11:11:16;;;;;;;1999.90;999.90;;;29.30;99.90;;;;;;5249098;28;20068;-75
2022/09/11 11:13:54;;;;;;;1999.90;999.90;;;29.30;99.90;;;;;;5248946;28;20024;-76
2022/09/11 11:16:38;;;;;;;1999.90;999.90;;;29.50;99.90;;;;;;5248398;28;20064;-77
2022/09/11 11:19:37;;;;;;;1999.90;999.90;;;29.70;99.90;;;;;;5248684;28;20104;-76
2022/09/11 11:22:23;;;;;;;1999.90;999.90;;;29.70;99.90;;;;;;5248662;28;20021;-77
2022/09/11 11:25:07;;;;;;;1999.90;999.90;;;29.80;99.90;;;;;;5248330;28;20035;-76
2022/09/11 11:27:59;;;;;;;1999.90;999.90;;;29.70;99.90;;;;;;5244588;28;20029;-77
2022/09/11 11:30:41;;;;;;;1999.90;999.90;;;29.30;99.90;;;;;;5237076;28;20027;-76
2022/09/11 11:33:23;;;;;;;1999.90;999.90;;;29.70;99.90;;;;;;5231266;28;20029;-77
2022/09/11 11:36:10;;;;;;;1999.90;999.90;;;29.80;99.90;;;;;;5233038;28;20032;-77
2022/09/11 11:39:21;;;;;;;1999.90;999.90;;;29.90;99.90;;;;;;5234959;28;20124;-76
2022/09/11 11:42:06;;;;;;;1999.90;999.90;;;29.80;99.90;;;;;;5233667;28;20437;-75
2022/09/11 11:44:50;;;;;;;1999.90;999.90;;;29.80;99.90;;;;;;5242854;28;20020;-76
2022/09/11 11:47:26;;;;;;;1999.90;999.90;;;29.50;99.90;;;;;;5230935;28;20021;-75
2022/09/11 11:50:26;;;;;;;1999.90;999.90;;;29.60;99.90;;;;;;5223904;28;20036;-77
2022/09/11 11:53:18;;;;;;;1999.90;999.90;;;29.00;99.90;;;;;;5240084;28;20021;-76
2022/09/11 11:56:34;;;;;;;1999.90;999.90;;;29.60;99.90;;;;;;5235229;28;20032;-77
2022/09/11 11:59:30;;;;;;;1999.90;999.90;;;30.00;99.90;;;;;;5194927;28;20041;-76
2022/09/11 12:02:14;;;;;;;1999.90;999.90;;;29.50;99.90;;;;;;5233362;28;20088;-77
2022/09/11 12:04:55;;;;;;;1999.90;999.90;;;29.50;99.90;;;;;;5233767;28;20028;-77
2022/09/11 12:07:31;;;;;;;1999.90;999.90;;;29.40;99.90;;;;;;5229419;28;20029;-77
2022/09/11 12:10:05;;;;;;;1999.90;999.90;;;29.70;99.90;;;;;;5233389;28;20392;-77
2022/09/11 12:12:55;;;;;;;1999.90;999.90;;;30.10;99.90;;;;;;5236267;28;20388;-76
2022/09/11 12:15:30;;;;;;;1999.90;999.90;;;29.90;99.90;;;;;;5229054;28;20021;-76
2022/09/11 12:18:22;;;;;;;1999.90;999.90;;;29.90;99.90;;;;;;5229070;28;20036;-77
2022/09/11 12:21:21;;;;;;;1999.90;999.90;;;30.20;99.90;;;;;;5232688;28;20384;-77
2022/09/11 12:23:55;;;;;;;1999.90;999.90;;;29.50;99.90;;;;;;5244993;28;20421;-77
2022/09/11 12:26:29;;;;;;;1999.90;999.90;;;30.00;99.90;;;;;;5239034;28;20029;-77
2022/09/11 12:29:13;;;;;;;1999.90;999.90;;;29.80;99.90;;;;;;5237140;28;20039;-76
2022/09/11 12:31:49;;;;;;;1999.90;999.90;;;29.70;99.90;;;;;;5232682;28;20020;-76
2022/09/11 12:34:43;;;;;;;1999.90;999.90;;;30.00;99.90;;;;;;5243214;28;20024;-78
2022/09/11 12:37:34;;;;;;;1999.90;999.90;;;29.90;99.90;;;;;;5243968;28;20405;-77
2022/09/11 12:40:37;;;;;;;1999.90;999.90;;;29.90;99.90;;;;;;5246849;28;20059;-77
2022/09/11 12:43:16;;;;;;;1999.90;999.90;;;29.80;99.90;;;;;;5241942;28;20037;-76
2022/09/11 12:45:47;;;;;;;1999.90;999.90;;;29.00;99.90;;;;;;5228323;28;20420;-77
2022/09/11 12:48:24;;;;;;;1999.90;999.90;;;29.00;99.90;;;;;;5229151;28;20059;-77